Time;durP1;ratioP1;P1;durP2;ratioP2;P2;SDS_P1;SDS_P2;PMS_P1;PMS_P2;Temp;Humidity;BMP_temperature;BMP_pressure;BME280_temperature;BME280_humidity;BME280_pressure;Samples;Min_cycle;Max_cycle;Signal;HPM_P1;HPM_P2
2022/07/01 00:00:45;;;;;;;;;;;;;;;28.87;48.17;99470.41;4387110;32;20057;-91
2022/07/01 00:03:12;;;;;;;;;;;;;;;28.92;47.97;99464.78;4386049;32;20045;-91
2022/07/01 00:05:39;;;;;;;;;;;;;;;28.91;47.92;99465.75;4386176;32;20017;-90
2022/07/01 00:08:05;;;;;;;;;;;;;;;29.00;47.37;99473.13;4384892;32;20374;-90
2022/07/01 00:10:33;;;;;;;;;;;;;;;28.75;48.44;99473.91;4386354;32;19997;-90
2022/07/01 00:13:00;;;;;;;;;;;;;;;28.97;47.11;99476.00;4378652;32;20081;-91
2022/07/01 00:15:27;;;;;;;;;;;;;;;28.84;47.63;99477.75;4378397;32;20062;-92
2022/07/01 00:17:54;;;;;;;;;;;;;;;28.87;47.50;99474.87;4405359;32;19970;-92
2022/07/01 00:20:20;;;;;;;;;;;;;;;28.81;47.80;99477.94;4401111;32;19996;-91
2022/07/01 00:22:47;;;;;;;;;;;;;;;28.79;47.65;99478.06;4401598;32;20667;-91
2022/07/01 00:25:14;;;;;;;;;;;;;;;28.83;47.57;99481.38;4396032;32;20735;-90
2022/07/01 00:27:41;;;;;;;;;;;;;;;28.76;47.50;99466.75;4410142;32;20056;-91
2022/07/01 00:30:08;;;;;;;;;;;;;;;28.64;48.02;99471.91;4414450;32;20024;-90
2022/07/01 00:32:36;;;;;;;;;;;;;;;28.66;47.89;99474.50;4393515;32;20012;-90
2022/07/01 00:35:02;;;;;;;;;;;;;;;28.72;47.78;99474.94;4404468;32;19991;-90
2022/07/01 00:37:30;;;;;;;;;;;;;;;28.72;47.66;99469.63;4395498;32;20287;-92
2022/07/01 00:39:57;;;;;;;;;;;;;;;28.45;48.45;99469.56;4406812;32;19982;-91
2022/07/01 00:42:23;;;;;;;;;;;;;;;28.37;48.88;99473.66;4401075;32;20308;-90
2022/07/01 00:44:50;;;;;;;;;;;;;;;28.36;48.71;99471.94;4400931;32;20026;-88
2022/07/01 00:47:17;;;;;;;;;;;;;;;28.44;48.42;99469.69;4400047;32;20366;-88
2022/07/01 00:49:44;;;;;;;;;;;;;;;28.37;48.73;99465.69;4399617;32;19983;-88
2022/07/01 00:52:11;;;;;;;;;;;;;;;28.27;48.81;99466.25;4398534;32;19970;-87
2022/07/01 00:54:38;;;;;;;;;;;;;;;28.12;49.16;99469.88;4419446;32;20008;-89
2022/07/01 00:57:09;;;;;;;;;;;;;;;28.22;48.50;99460.34;4427698;32;20014;-89
2022/07/01 00:59:36;;;;;;;;;;;;;;;28.31;48.38;99463.41;4427490;32;20044;-88
2022/07/01 01:02:05;;;;;;;;;;;;;;;28.32;48.11;99465.09;4399099;32;19981;-89
2022/07/01 01:04:32;;;;;;;;;;;;;;;28.25;48.51;99464.62;4414663;32;19982;-89
2022/07/01 01:07:00;;;;;;;;;;;;;;;28.30;48.26;99465.19;4417490;32;19986;-88
2022/07/01 01:09:27;;;;;;;;;;;;;;;28.23;48.30;99472.69;4418786;32;20022;-88
2022/07/01 01:11:54;;;;;;;;;;;;;;;28.09;48.90;99470.06;4428746;32;19992;-89
2022/07/01 01:14:21;;;;;;;;;;;;;;;28.02;48.97;99469.59;4427497;32;20065;-92
2022/07/01 01:16:48;;;;;;;;;;;;;;;28.16;48.64;99465.22;4416204;32;19989;-91
2022/07/01 01:19:15;;;;;;;;;;;;;;;28.11;48.62;99472.63;4414255;32;20397;-94
2022/07/01 01:21:42;;;;;;;;;;;;;;;28.12;48.73;99464.56;4419919;32;19982;-93
2022/07/01 01:24:09;;;;;;;;;;;;;;;28.03;48.74;99465.97;4413929;32;20496;-93
2022/07/01 01:26:38;;;;;;;;;;;;;;;28.10;47.97;99465.59;4417983;32;19978;-89
2022/07/01 01:29:07;;;;;;;;;;;;;;;28.11;48.29;99462.84;4419596;32;19986;-92
2022/07/01 01:31:34;;;;;;;;;;;;;;;27.97;48.87;99468.16;4413359;32;19991;-92
2022/07/01 01:34:01;;;;;;;;;;;;;;;27.99;48.77;99475.09;4417320;32;20060;-91
2022/07/01 01:36:28;;;;;;;;;;;;;;;27.94;49.15;99474.53;4411149;32;19990;-92
2022/07/01 01:39:02;;;;;;;;;;;;;;;27.83;49.44;99474.34;4410539;32;19978;-91
2022/07/01 01:41:28;;;;;;;;;;;;;;;27.81;49.40;99486.88;4423874;32;20023;-91
2022/07/01 01:43:55;;;;;;;;;;;;;;;27.82;49.39;99477.94;4429085;32;20065;-90
2022/07/01 01:46:22;;;;;;;;;;;;;;;27.75;49.64;99472.09;4415011;32;20028;-91
2022/07/01 01:48:49;;;;;;;;;;;;;;;27.86;49.20;99475.97;4427280;32;19986;-92
2022/07/01 01:51:18;;;;;;;;;;;;;;;27.70;50.04;99476.84;4415795;32;20015;-91
2022/07/01 01:53:45;;;;;;;;;;;;;;;27.65;49.94;99473.59;4418085;32;19981;-91
2022/07/01 01:56:12;;;;;;;;;;;;;;;27.55;50.28;99475.09;4416048;32;20041;-90
2022/07/01 01:58:42;;;;;;;;;;;;;;;27.70;49.70;99468.88;4403554;32;20008;-90
2022/07/01 02:01:13;;;;;;;;;;;;;;;27.52;50.38;99464.66;4399808;32;19975;-90
2022/07/01 02:03:40;;;;;;;;;;;;;;;27.55;50.08;99460.00;4399895;32;19971;-91
2022/07/01 02:06:09;;;;;;;;;;;;;;;27.42;50.67;99463.50;4398211;32;19993;-88
2022/07/01 02:08:36;;;;;;;;;;;;;;;27.48;50.11;99460.47;4412689;32;20001;-89
2022/07/01 02:11:03;;;;;;;;;;;;;;;27.57;50.10;99467.91;4431955;32;20012;-89
2022/07/01 02:13:30;;;;;;;;;;;;;;;27.47;50.34;99461.41;4412088;32;20046;-90
2022/07/01 02:15:57;;;;;;;;;;;;;;;27.40;50.64;99465.38;4422548;32;20521;-90
2022/07/01 02:18:24;;;;;;;;;;;;;;;27.48;50.26;99457.81;4414082;32;19981;-93
2022/07/01 02:20:51;;;;;;;;;;;;;;;27.45;50.23;99458.00;4411821;32;20013;-91
2022/07/01 02:23:19;;;;;;;;;;;;;;;27.31;50.74;99457.03;4386826;32;19990;-94
2022/07/01 02:25:46;;;;;;;;;;;;;;;27.42;50.23;99461.69;4404772;32;20307;-92
2022/07/01 02:28:13;;;;;;;;;;;;;;;27.44;50.20;99464.25;4404939;32;19997;-91
2022/07/01 02:30:40;;;;;;;;;;;;;;;27.35;50.54;99463.88;4412715;32;19978;-93
2022/07/01 02:33:07;;;;;;;;;;;;;;;27.39;50.51;99471.66;4405843;32;20371;-93
2022/07/01 02:35:34;;;;;;;;;;;;;;;27.37;50.65;99472.59;4407056;32;20017;-91
2022/07/01 02:38:02;;;;;;;;;;;;;;;27.16;51.28;99484.50;4404989;32;19985;-91
2022/07/01 02:40:29;;;;;;;;;;;;;;;27.26;50.93;99472.38;4402552;32;19992;-92
2022/07/01 02:42:56;;;;;;;;;;;;;;;27.18;51.34;99482.59;4399310;32;19982;-93
2022/07/01 02:45:25;;;;;;;;;;;;;;;27.33;50.72;99481.69;4407560;32;19986;-93
2022/07/01 02:47:52;;;;;;;;;;;;;;;27.20;51.06;99485.16;4387666;32;19992;-93
2022/07/01 02:50:19;;;;;;;;;;;;;;;27.23;50.97;99480.53;4407015;32;20248;-89
2022/07/01 02:52:52;;;;;;;;;;;;;;;27.35;50.50;99477.16;4401121;32;19998;-94
2022/07/01 02:55:18;;;;;;;;;;;;;;;27.33;50.30;99481.69;4401724;32;19986;-91
2022/07/01 02:57:45;;;;;;;;;;;;;;;27.21;50.91;99482.41;4405761;32;20058;-90
2022/07/01 03:00:13;;;;;;;;;;;;;;;27.23;50.87;99493.81;4400000;32;20022;-89
2022/07/01 03:02:40;;;;;;;;;;;;;;;27.20;50.83;99491.34;4407033;32;20006;-88
2022/07/01 03:05:07;;;;;;;;;;;;;;;27.27;50.98;99492.69;4400559;32;20061;-88
2022/07/01 03:07:37;;;;;;;;;;;;;;;27.11;51.38;99491.81;4402142;32;19979;-89
2022/07/01 03:10:04;;;;;;;;;;;;;;;26.99;52.06;99484.56;4413009;32;19990;-85
2022/07/01 03:12:34;;;;;;;;;;;;;;;27.10;51.64;99490.13;4411126;32;19997;-87
2022/07/01 03:15:01;;;;;;;;;;;;;;;27.20;51.21;99496.66;4407065;32;20393;-88
2022/07/01 03:17:29;;;;;;;;;;;;;;;27.13;51.58;99496.16;4408607;32;19990;-90
2022/07/01 03:20:05;;;;;;;;;;;;;;;27.17;51.27;99494.16;4400964;32;19982;-91
2022/07/01 03:22:33;;;;;;;;;;;;;;;27.17;51.79;99503.94;4401417;32;20446;-90
2022/07/01 03:25:00;;;;;;;;;;;;;;;27.30;51.24;99508.44;4387689;32;20021;-93
2022/07/01 03:27:27;;;;;;;;;;;;;;;27.25;51.27;99505.22;4400596;32;20018;-92
2022/07/01 03:29:54;;;;;;;;;;;;;;;27.29;51.17;99520.03;4402219;32;19994;-91
2022/07/01 03:32:21;;;;;;;;;;;;;;;27.32;51.41;99522.53;4408426;32;20008;-91
2022/07/01 03:34:49;;;;;;;;;;;;;;;27.27;51.60;99523.72;4408725;32;19979;-92
2022/07/01 03:37:17;;;;;;;;;;;;;;;27.30;51.70;99531.53;4400960;32;20058;-92
2022/07/01 03:39:43;;;;;;;;;;;;;;;27.25;51.63;99528.25;4403101;32;20427;-94
2022/07/01 03:42:10;;;;;;;;;;;;;;;27.39;51.53;99532.78;4410243;32;20044;-94
2022/07/01 03:44:37;;;;;;;;;;;;;;;27.41;51.57;99538.88;4402051;32;20003;-93
2022/07/01 03:47:05;;;;;;;;;;;;;;;27.30;51.57;99540.34;4400941;32;20031;-93
2022/07/01 03:49:33;;;;;;;;;;;;;;;27.45;51.06;99543.06;4403382;32;20039;-93
2022/07/01 03:52:01;;;;;;;;;;;;;;;27.49;50.96;99555.25;4407458;32;20017;-93
2022/07/01 03:54:32;;;;;;;;;;;;;;;27.51;51.34;99548.03;4407156;32;20034;-92
2022/07/01 03:57:00;;;;;;;;;;;;;;;27.46;51.38;99555.41;4386828;32;19987;-92
2022/07/01 03:59:27;;;;;;;;;;;;;;;27.57;51.89;99553.00;4386622;32;20001;-91
2022/07/01 04:01:54;;;;;;;;;;;;;;;27.56;51.75;99557.44;4392056;32;19986;-92
2022/07/01 04:04:21;;;;;;;;;;;;;;;27.48;51.62;99564.16;4388513;32;19982;-92
2022/07/01 04:06:48;;;;;;;;;;;;;;;27.59;51.50;99556.41;4386846;32;20010;-93
2022/07/01 04:09:16;;;;;;;;;;;;;;;27.66;51.22;99562.22;4362902;32;20014;-95
2022/07/01 04:11:43;;;;;;;;;;;;;;;27.67;51.42;99562.16;4413169;32;20009;-93
2022/07/01 04:14:10;;;;;;;;;;;;;;;27.59;51.68;99556.41;4418394;32;19990;-91
2022/07/01 04:16:37;;;;;;;;;;;;;;;27.79;51.56;99556.12;4404837;32;20367;-93
2022/07/01 04:19:05;;;;;;;;;;;;;;;27.66;51.60;99557.75;4403550;32;20413;-94
2022/07/01 04:24:18;;;;;;;;;;;;;;;27.74;51.33;99549.34;4408108;32;20001;-91
2022/07/01 04:26:44;;;;;;;;;;;;;;;27.72;51.16;99552.06;4422396;32;20000;-85
2022/07/01 04:29:11;;;;;;;;;;;;;;;27.84;51.03;99549.66;4417773;32;20008;-87
2022/07/01 04:31:39;;;;;;;;;;;;;;;27.86;51.06;99547.78;4418211;32;20007;-91
2022/07/01 04:34:06;;;;;;;;;;;;;;;28.00;51.00;99545.97;4426228;32;20323;-95
2022/07/01 04:36:32;;;;;;;;;;;;;;;28.05;51.27;99553.72;4434278;32;20059;-92
2022/07/01 04:39:00;;;;;;;;;;;;;;;28.09;51.47;99544.56;4416020;32;19970;-92
2022/07/01 04:44:13;;;;;;;;;;;;;;;28.16;51.15;99534.41;4418359;32;20487;-90
2022/07/01 04:46:39;;;;;;;;;;;;;;;28.09;51.38;99539.25;4416129;32;20000;-91
2022/07/01 04:49:07;;;;;;;;;;;;;;;28.17;51.37;99547.59;4414832;32;20320;-82
2022/07/01 04:51:34;;;;;;;;;;;;;;;28.23;51.64;99538.41;4414657;32;19997;-84
2022/07/01 04:54:02;;;;;;;;;;;;;;;28.23;51.51;99535.75;4420978;32;21225;-83
2022/07/01 04:56:29;;;;;;;;;;;;;;;28.21;51.50;99538.50;4416449;32;20005;-90
2022/07/01 04:58:56;;;;;;;;;;;;;;;28.33;51.13;99533.34;4415618;32;20522;-86
2022/07/01 05:01:23;;;;;;;;;;;;;;;28.41;50.94;99539.09;4413934;32;20045;-88
2022/07/01 05:03:50;;;;;;;;;;;;;;;28.37;50.72;99537.56;4413608;32;20488;-88
2022/07/01 05:06:17;;;;;;;;;;;;;;;28.49;50.54;99536.81;4414752;32;19973;-83
2022/07/01 05:08:44;;;;;;;;;;;;;;;28.56;50.85;99538.16;4416304;32;19978;-89
2022/07/01 05:11:11;;;;;;;;;;;;;;;28.59;50.97;99545.06;4415788;32;20001;-88
2022/07/01 05:13:38;;;;;;;;;;;;;;;28.66;50.71;99544.59;4408420;32;19986;-87
2022/07/01 05:16:05;;;;;;;;;;;;;;;28.77;50.30;99545.72;4429312;32;19970;-87
2022/07/01 05:24:03;;;;;;;;;;;;;;;28.82;50.38;99559.63;4415377;32;19993;-88
2022/07/01 05:26:30;;;;;;;;;;;;;;;28.87;50.42;99568.16;4416205;32;20342;-87
2022/07/01 05:28:57;;;;;;;;;;;;;;;29.01;50.22;99564.66;4416192;32;19970;-84
2022/07/01 05:31:24;;;;;;;;;;;;;;;29.08;50.24;99558.81;4408425;32;20319;-85
2022/07/01 05:33:51;;;;;;;;;;;;;;;29.16;50.37;99559.19;4420177;32;20323;-85
2022/07/01 05:36:18;;;;;;;;;;;;;;;29.10;50.91;99561.38;4416225;32;19994;-85
2022/07/01 05:38:44;;;;;;;;;;;;;;;29.28;50.40;99561.97;4417267;32;19992;-88
2022/07/01 05:41:11;;;;;;;;;;;;;;;29.25;50.67;99562.19;4416879;32;19997;-87
2022/07/01 05:43:38;;;;;;;;;;;;;;;29.39;50.37;99559.47;4417728;32;20016;-88
2022/07/01 05:46:06;;;;;;;;;;;;;;;29.32;49.98;99567.00;4416485;32;19982;-87
2022/07/01 05:48:33;;;;;;;;;;;;;;;29.45;49.92;99569.72;4414523;32;19973;-88
2022/07/01 05:51:00;;;;;;;;;;;;;;;29.51;50.29;99569.31;4418681;32;20041;-86
2022/07/01 05:53:27;;;;;;;;;;;;;;;29.65;50.06;99566.63;4416134;32;20052;-83
2022/07/01 05:55:54;;;;;;;;;;;;;;;29.39;51.64;99575.47;4413920;32;19990;-87
2022/07/01 05:58:21;;;;;;;;;;;;;;;29.78;50.48;99576.47;4419588;32;19970;-92
2022/07/01 06:00:48;;;;;;;;;;;;;;;29.75;51.27;99584.66;4395938;32;20449;-85
2022/07/01 06:03:15;;;;;;;;;;;;;;;29.83;50.58;99585.00;4413469;32;19995;-93
2022/07/01 06:05:42;;;;;;;;;;;;;;;29.77;50.43;99590.75;4430993;32;20029;-94
2022/07/01 06:08:09;;;;;;;;;;;;;;;29.82;50.30;99589.47;4415693;32;20775;-92
2022/07/01 06:10:38;;;;;;;;;;;;;;;30.01;50.48;99593.56;4430545;32;19978;-92
2022/07/01 06:13:05;;;;;;;;;;;;;;;30.15;50.31;99595.28;4417973;32;19993;-93
2022/07/01 06:15:32;;;;;;;;;;;;;;;30.39;49.07;99595.44;4412656;32;20038;-92
2022/07/01 06:18:00;;;;;;;;;;;;;;;30.67;48.40;99600.53;4405502;32;20387;-89
2022/07/01 06:20:27;;;;;;;;;;;;;;;30.93;46.89;99597.84;4416365;32;19981;-91
2022/07/01 06:22:53;;;;;;;;;;;;;;;31.23;46.30;99600.09;4427318;32;19982;-91
2022/07/01 06:25:21;;;;;;;;;;;;;;;31.58;45.41;99604.69;4410429;32;19989;-91
2022/07/01 06:27:47;;;;;;;;;;;;;;;31.73;45.54;99603.53;4421249;32;20000;-93
2022/07/01 06:30:14;;;;;;;;;;;;;;;32.07;44.22;99611.69;4414101;32;19979;-93
2022/07/01 06:32:41;;;;;;;;;;;;;;;32.36;43.69;99606.78;4401499;32;20724;-94
2022/07/01 06:35:08;;;;;;;;;;;;;;;32.65;43.06;99609.88;4417845;32;20690;-88
2022/07/01 06:37:35;;;;;;;;;;;;;;;32.85;42.19;99609.12;4415007;32;20035;-89
2022/07/01 06:40:03;;;;;;;;;;;;;;;33.06;41.53;99605.72;4415501;32;19985;-90
2022/07/01 06:42:30;;;;;;;;;;;;;;;33.21;41.33;99604.44;4414921;32;20020;-89
2022/07/01 06:44:57;;;;;;;;;;;;;;;33.54;42.10;99600.00;4415807;32;20343;-92
2022/07/01 06:47:24;;;;;;;;;;;;;;;33.57;41.07;99594.38;4417644;32;19978;-92
2022/07/01 06:49:51;;;;;;;;;;;;;;;33.76;41.21;99602.59;4417163;32;19977;-85
2022/07/01 06:52:20;;;;;;;;;;;;;;;33.96;40.82;99594.69;4400092;32;20006;-86
2022/07/01 06:54:47;;;;;;;;;;;;;;;34.26;40.43;99596.59;4411689;32;20035;-85
2022/07/01 06:57:14;;;;;;;;;;;;;;;34.49;39.81;99602.63;4422231;32;19988;-80
2022/07/01 06:59:41;;;;;;;;;;;;;;;34.51;39.74;99600.66;4417258;32;19978;-82
2022/07/01 07:02:08;;;;;;;;;;;;;;;34.43;40.08;99595.09;4413389;32;19998;-88
2022/07/01 07:04:35;;;;;;;;;;;;;;;34.37;40.33;99601.88;4422381;32;20060;-88
2022/07/01 07:07:22;;;;;;;;;;;;;;;34.59;39.40;99600.03;4398975;32;19994;-92
2022/07/01 07:09:49;;;;;;;;;;;;;;;34.83;40.71;99599.69;4421920;32;19977;-92
2022/07/01 07:12:15;;;;;;;;;;;;;;;35.16;38.51;99596.72;4415986;32;20315;-94
2022/07/01 07:14:43;;;;;;;;;;;;;;;35.32;39.50;99600.69;4417445;32;20348;-92
2022/07/01 07:17:09;;;;;;;;;;;;;;;35.05;37.59;99594.12;4417709;32;20045;-91
2022/07/01 07:19:37;;;;;;;;;;;;;;;35.21;37.61;99592.75;4412729;32;19975;-89
2022/07/01 07:22:04;;;;;;;;;;;;;;;35.26;36.28;99596.72;4424258;32;19978;-84
2022/07/01 07:24:31;;;;;;;;;;;;;;;35.73;35.00;99590.66;4417150;32;20344;-87
2022/07/01 07:26:57;;;;;;;;;;;;;;;35.61;37.98;99584.56;4412905;32;19996;-86
2022/07/01 07:29:24;;;;;;;;;;;;;;;35.48;36.53;99581.28;4422481;32;19970;-85
2022/07/01 07:31:51;;;;;;;;;;;;;;;35.05;35.60;99583.38;4414178;32;19977;-85
2022/07/01 07:34:18;;;;;;;;;;;;;;;35.10;36.43;99586.50;4420440;32;19994;-86
2022/07/01 07:36:46;;;;;;;;;;;;;;;35.71;36.12;99585.44;4416321;32;20426;-86
2022/07/01 07:39:12;;;;;;;;;;;;;;;35.81;34.54;99585.44;4410195;32;19982;-82
2022/07/01 07:41:39;;;;;;;;;;;;;;;36.18;34.67;99580.13;4391733;32;20368;-85
2022/07/01 07:44:07;;;;;;;;;;;;;;;35.54;35.26;99589.69;4406889;32;20040;-83
2022/07/01 07:46:34;;;;;;;;;;;;;;;35.55;33.95;99591.41;4384276;32;20033;-83
2022/07/01 07:49:01;;;;;;;;;;;;;;;35.97;34.19;99596.47;4416776;32;19996;-87
2022/07/01 07:51:28;;;;;;;;;;;;;;;35.77;34.62;99584.00;4418856;32;19986;-87
2022/07/01 07:53:55;;;;;;;;;;;;;;;35.85;34.13;99586.84;4415047;32;20032;-87
2022/07/01 07:56:21;;;;;;;;;;;;;;;36.19;33.32;99589.09;4420924;32;19974;-89
2022/07/01 07:58:48;;;;;;;;;;;;;;;36.20;34.75;99593.47;4415419;32;19986;-88
2022/07/01 08:01:15;;;;;;;;;;;;;;;36.34;32.16;99598.38;4414465;32;19981;-91
2022/07/01 08:03:42;;;;;;;;;;;;;;;36.61;34.19;99600.31;4420362;32;20398;-90
2022/07/01 08:06:13;;;;;;;;;;;;;;;36.91;32.62;99593.78;4415374;32;19989;-86
2022/07/01 08:08:43;;;;;;;;;;;;;;;36.97;33.19;99609.38;4409656;32;19986;-90
2022/07/01 08:11:10;;;;;;;;;;;;;;;36.87;32.19;99600.47;4419388;32;19980;-87
2022/07/01 08:13:37;;;;;;;;;;;;;;;37.24;31.10;99602.28;4415545;32;20002;-87
2022/07/01 08:16:04;;;;;;;;;;;;;;;37.31;31.25;99597.13;4411299;32;20032;-89
2022/07/01 08:18:31;;;;;;;;;;;;;;;37.33;32.42;99605.91;4410037;32;20028;-87
2022/07/01 08:20:58;;;;;;;;;;;;;;;37.52;30.80;99604.94;4418303;32;20002;-86
2022/07/01 08:23:25;;;;;;;;;;;;;;;37.53;31.88;99601.25;4417304;32;20000;-87
2022/07/01 08:25:52;;;;;;;;;;;;;;;37.26;30.21;99597.56;4430993;32;20676;-85
2022/07/01 08:28:19;;;;;;;;;;;;;;;37.63;29.89;99607.41;4431547;32;20031;-88
2022/07/01 08:30:47;;;;;;;;;;;;;;;37.52;28.48;99600.38;4118845;32;10000146;-88
2022/07/01 08:33:14;;;;;;;;;;;;;;;37.39;29.03;99598.03;4420650;32;20007;-81
2022/07/01 08:35:41;;;;;;;;;;;;;;;37.37;29.50;99608.16;4403570;32;19990;-85
2022/07/01 08:38:08;;;;;;;;;;;;;;;37.25;29.01;99603.97;4399322;32;19992;-90
2022/07/01 08:40:36;;;;;;;;;;;;;;;36.90;30.53;99594.78;4401950;32;20000;-89
2022/07/01 08:43:03;;;;;;;;;;;;;;;37.43;29.54;99602.16;4387696;32;19986;-87
2022/07/01 08:45:31;;;;;;;;;;;;;;;37.89;29.98;99592.09;4404958;32;20479;-85
2022/07/01 08:48:02;;;;;;;;;;;;;;;37.88;29.25;99606.63;4401271;32;19985;-90
2022/07/01 08:50:36;;;;;;;;;;;;;;;37.97;29.74;99598.59;4403705;32;20067;-83
2022/07/01 08:53:04;;;;;;;;;;;;;;;38.01;27.50;99600.00;4400030;32;20036;-83
2022/07/01 08:55:31;;;;;;;;;;;;;;;38.27;27.26;99592.72;4401738;32;19998;-90
2022/07/01 08:57:58;;;;;;;;;;;;;;;37.99;30.64;99602.00;4399990;32;19974;-90
2022/07/01 09:00:31;;;;;;;;;;;;;;;37.99;29.64;99597.44;4401258;32;19978;-84
2022/07/01 09:02:59;;;;;;;;;;;;;;;37.83;27.27;99603.53;4401351;32;19978;-90
2022/07/01 09:05:26;;;;;;;;;;;;;;;38.00;29.37;99592.88;4401151;32;19982;-87
2022/07/01 09:08:00;;;;;;;;;;;;;;;37.74;28.97;99588.25;4400425;32;20028;-89
2022/07/01 09:10:33;;;;;;;;;;;;;;;37.97;28.58;99587.78;4387016;32;20045;-88
2022/07/01 09:13:05;;;;;;;;;;;;;;;37.11;28.62;99602.66;4391301;32;20313;-90
2022/07/01 09:15:32;;;;;;;;;;;;;;;37.75;27.58;99583.69;4400887;32;19993;-90
2022/07/01 09:18:03;;;;;;;;;;;;;;;38.22;26.80;99565.31;4412521;32;20024;-88
2022/07/01 09:20:33;;;;;;;;;;;;;;;38.29;27.07;99582.63;4401144;32;19985;-89
2022/07/01 09:23:02;;;;;;;;;;;;;;;38.51;25.96;99570.41;4401249;32;20000;-90
2022/07/01 09:25:33;;;;;;;;;;;;;;;38.15;26.91;99575.06;4389619;32;20049;-83
2022/07/01 09:28:03;;;;;;;;;;;;;;;37.32;28.20;99588.84;4387796;32;19975;-88
2022/07/01 09:30:32;;;;;;;;;;;;;;;37.82;27.67;99588.34;4395007;32;20791;-86
2022/07/01 09:33:06;;;;;;;;;;;;;;;37.62;27.04;99584.09;4386618;32;19979;-89
2022/07/01 09:35:34;;;;;;;;;;;;;;;37.91;26.01;99575.75;4392267;32;19978;-87
2022/07/01 09:38:01;;;;;;;;;;;;;;;37.82;27.05;99571.28;4389866;32;20013;-89
2022/07/01 09:40:44;;;;;;;;;;;;;;;38.22;28.98;99576.13;4398653;32;19990;-89
2022/07/01 09:43:15;;;;;;;;;;;;;;;37.50;27.28;99579.97;4401532;32;19996;-83
2022/07/01 09:45:49;;;;;;;;;;;;;;;37.79;27.01;99580.53;4390513;32;20085;-88
2022/07/01 09:48:16;;;;;;;;;;;;;;;38.03;27.26;99574.47;4391223;32;19986;-89
2022/07/01 09:50:43;;;;;;;;;;;;;;;38.07;30.68;99583.16;4396854;32;20011;-89
2022/07/01 09:53:10;;;;;;;;;;;;;;;38.80;25.79;99580.88;4385709;32;20054;-90
2022/07/01 09:55:38;;;;;;;;;;;;;;;38.29;27.91;99566.41;4400677;32;20457;-83
2022/07/01 09:58:05;;;;;;;;;;;;;;;38.25;27.14;99569.56;4407150;32;19982;-88
2022/07/01 10:00:32;;;;;;;;;;;;;;;38.14;25.85;99563.41;4412046;32;20057;-83
2022/07/01 10:03:03;;;;;;;;;;;;;;;37.92;27.29;99578.31;4409689;32;20001;-83
2022/07/01 10:05:32;;;;;;;;;;;;;;;37.88;27.41;99573.34;4386549;32;19996;-83
2022/07/01 10:08:11;;;;;;;;;;;;;;;38.58;25.95;99566.06;4385557;32;20009;-83
2022/07/01 10:10:53;;;;;;;;;;;;;;;38.60;29.31;99574.84;4402921;32;20836;-90
2022/07/01 10:13:21;;;;;;;;;;;;;;;38.26;27.03;99560.44;4386105;32;19979;-91
2022/07/01 10:15:48;;;;;;;;;;;;;;;38.84;26.94;99552.47;4394436;32;20394;-90
2022/07/01 10:18:20;;;;;;;;;;;;;;;38.94;25.84;99554.22;4399738;32;20324;-91
2022/07/01 10:20:47;;;;;;;;;;;;;;;39.30;25.13;99555.66;4400467;32;19979;-89
2022/07/01 10:23:14;;;;;;;;;;;;;;;38.28;25.24;99559.25;4405246;32;19998;-88
2022/07/01 10:25:42;;;;;;;;;;;;;;;38.06;25.22;99554.41;4411559;32;20045;-85
2022/07/01 10:28:25;;;;;;;;;;;;;;;38.07;26.78;99556.12;4402591;32;20020;-91
2022/07/01 10:30:52;;;;;;;;;;;;;;;37.83;26.17;99554.88;4386826;32;20371;-92
2022/07/01 10:33:40;;;;;;;;;;;;;;;37.51;27.08;99557.34;4402946;32;19986;-90
2022/07/01 10:36:15;;;;;;;;;;;;;;;37.11;26.04;99554.06;4386036;32;20037;-88
2022/07/01 10:39:08;;;;;;;;;;;;;;;37.20;27.03;99552.28;4414001;32;20316;-85
2022/07/01 10:41:41;;;;;;;;;;;;;;;37.65;26.17;99551.37;4415977;32;19997;-94
2022/07/01 10:44:10;;;;;;;;;;;;;;;37.92;26.52;99542.31;4415912;32;19994;-94
2022/07/01 10:46:46;;;;;;;;;;;;;;;37.78;27.35;99541.03;4410491;32;20073;-89
2022/07/01 10:49:13;;;;;;;;;;;;;;;37.56;27.38;99544.19;4409087;32;20448;-90
2022/07/01 10:51:49;;;;;;;;;;;;;;;37.21;26.05;99543.19;4403599;32;19964;-94
2022/07/01 10:54:45;;;;;;;;;;;;;;;37.18;26.86;99554.31;4400830;32;20001;-93
2022/07/01 10:57:15;;;;;;;;;;;;;;;37.72;27.94;99547.06;4404310;32;20064;-89
2022/07/01 11:00:02;;;;;;;;;;;;;;;37.10;27.35;99546.09;4384962;32;19997;-92
2022/07/01 11:02:30;;;;;;;;;;;;;;;37.26;27.02;99540.88;4378921;32;20779;-93
2022/07/01 11:05:02;;;;;;;;;;;;;;;37.12;28.02;99550.38;4400706;32;20004;-88
2022/07/01 11:07:32;;;;;;;;;;;;;;;37.03;28.46;99545.03;4402265;32;20041;-86
2022/07/01 11:10:00;;;;;;;;;;;;;;;37.36;27.67;99541.63;4404803;32;19987;-90
2022/07/01 11:12:27;;;;;;;;;;;;;;;37.52;28.08;99545.53;4399045;32;20418;-90
2022/07/01 11:14:55;;;;;;;;;;;;;;;37.59;29.14;99550.16;4397850;32;20020;-90
2022/07/01 11:17:22;;;;;;;;;;;;;;;37.41;27.46;99539.31;4418836;32;20329;-89
2022/07/01 11:19:52;;;;;;;;;;;;;;;37.55;25.51;99540.66;4414934;32;19990;-87
2022/07/01 11:22:20;;;;;;;;;;;;;;;37.36;25.90;99530.84;4426121;32;19990;-89
2022/07/01 11:24:51;;;;;;;;;;;;;;;37.53;27.39;99539.13;4414622;32;19990;-92
2022/07/01 11:27:18;;;;;;;;;;;;;;;37.27;27.69;99526.38;4415147;32;20049;-91
2022/07/01 11:29:44;;;;;;;;;;;;;;;37.56;26.38;99519.88;4411611;32;19969;-93
2022/07/01 11:32:12;;;;;;;;;;;;;;;37.87;26.41;99523.84;4410672;32;20041;-90
2022/07/01 11:34:38;;;;;;;;;;;;;;;37.73;26.78;99532.53;4402065;32;21044;-87
2022/07/01 11:40:08;;;;;;;;;;;;;;;37.93;25.49;99511.59;4412544;32;19986;-89
2022/07/01 11:42:35;;;;;;;;;;;;;;;38.25;24.47;99500.09;4409761;32;20383;-87
2022/07/01 11:45:03;;;;;;;;;;;;;;;38.20;23.77;99497.06;4416091;32;19986;-87
2022/07/01 11:47:30;;;;;;;;;;;;;;;38.47;24.74;99508.69;4408820;32;20279;-87
2022/07/01 11:49:57;;;;;;;;;;;;;;;38.01;24.92;99502.69;4412950;32;22324;-87
2022/07/01 11:52:27;;;;;;;;;;;;;;;38.25;25.26;99496.56;4413149;32;19981;-88
2022/07/01 11:54:57;;;;;;;;;;;;;;;38.00;24.69;99491.00;4388563;32;779810;-87
2022/07/01 11:57:44;;;;;;;;;;;;;;;37.46;25.33;99487.56;4412116;32;19974;-87
2022/07/01 12:00:11;;;;;;;;;;;;;;;37.29;25.68;99491.97;4407129;32;20699;-83
2022/07/01 12:02:39;;;;;;;;;;;;;;;37.37;25.88;99488.50;4412362;32;20001;-90
2022/07/01 12:05:06;;;;;;;;;;;;;;;37.86;25.58;99480.78;4408542;32;19990;-84
2022/07/01 12:07:33;;;;;;;;;;;;;;;38.06;24.26;99473.31;4413274;32;20049;-89
2022/07/01 12:10:01;;;;;;;;;;;;;;;38.44;25.41;99476.56;4412351;32;19969;-89
2022/07/01 12:12:31;;;;;;;;;;;;;;;37.56;24.54;99468.56;4412552;32;20448;-89
2022/07/01 12:14:58;;;;;;;;;;;;;;;37.35;24.35;99480.53;4414721;32;19994;-93
2022/07/01 12:17:28;;;;;;;;;;;;;;;37.89;23.46;99467.78;4410856;32;19998;-88
2022/07/01 12:20:02;;;;;;;;;;;;;;;37.51;24.75;99463.66;4408889;32;19978;-91
2022/07/01 12:22:30;;;;;;;;;;;;;;;37.98;23.87;99466.00;4408867;32;19978;-90
2022/07/01 12:25:11;;;;;;;;;;;;;;;37.80;25.25;99466.03;4412378;32;20271;-87
2022/07/01 12:27:38;;;;;;;;;;;;;;;38.01;24.64;99464.84;4420908;32;20286;-89
2022/07/01 12:30:10;;;;;;;;;;;;;;;38.21;24.69;99460.87;4416347;32;20027;-86
2022/07/01 12:32:38;;;;;;;;;;;;;;;38.37;24.53;99454.69;4416724;32;19989;-85
2022/07/01 12:35:33;;;;;;;;;;;;;;;38.14;24.55;99459.84;4411989;32;20012;-85
2022/07/01 12:37:53;;;;;;;;;;;;;;;38.37;24.30;99460.09;4413978;32;20335;-85
2022/07/01 12:40:24;;;;;;;;;;;;;;;38.08;21.87;99450.53;4428005;32;19990;-86
2022/07/01 12:42:51;;;;;;;;;;;;;;;38.13;23.12;99448.19;4414789;32;20001;-86
2022/07/01 12:45:22;;;;;;;;;;;;;;;38.37;23.00;99444.75;4417083;32;19997;-87
2022/07/01 12:47:50;;;;;;;;;;;;;;;38.36;22.66;99440.31;4413500;32;19978;-86
2022/07/01 12:50:19;;;;;;;;;;;;;;;38.44;23.98;99438.69;4414742;32;19984;-86
2022/07/01 12:53:05;;;;;;;;;;;;;;;38.49;24.48;99436.34;4415714;32;20038;-86
2022/07/01 12:55:36;;;;;;;;;;;;;;;38.42;24.09;99433.47;4411768;32;19982;-87
2022/07/01 12:58:05;;;;;;;;;;;;;;;38.95;23.52;99425.97;4415318;32;19990;-86
2022/07/01 13:00:32;;;;;;;;;;;;;;;38.96;23.77;99416.81;4416713;32;19974;-86
2022/07/01 13:02:59;;;;;;;;;;;;;;;39.00;22.79;99418.19;4423224;32;20044;-86
2022/07/01 13:05:27;;;;;;;;;;;;;;;38.40;23.87;99421.94;4441320;32;19985;-86